createdAt,value
2018-03-18T00:00:07.609Z,-3.04
2018-03-18T00:02:39.792Z,-3.00
2018-03-18T00:05:09.039Z,-3.01
2018-03-18T00:07:37.806Z,-2.96
2018-03-18T00:10:07.253Z,-3.07
2018-03-18T00:12:39.063Z,-3.01
2018-03-18T00:15:07.487Z,-2.99
2018-03-18T00:17:36.795Z,-2.96
2018-03-18T00:20:06.294Z,-2.97
2018-03-18T00:22:36.207Z,-2.87
2018-03-18T00:25:05.501Z,-2.97
2018-03-18T00:27:33.924Z,-3.05
2018-03-18T00:30:02.310Z,-2.97
2018-03-18T00:32:30.741Z,-2.94
2018-03-18T00:34:59.890Z,-2.94
2018-03-18T00:37:28.311Z,-2.94
2018-03-18T00:39:58.355Z,-2.97
2018-03-18T00:42:28.092Z,-3.00
2018-03-18T00:44:57.321Z,-2.89
2018-03-18T00:47:25.912Z,-3.00
2018-03-18T00:49:54.370Z,-2.96
2018-03-18T00:52:23.615Z,-3.01
2018-03-18T00:54:53.016Z,-3.03
2018-03-18T00:57:22.776Z,-2.97
2018-03-18T00:59:51.266Z,-2.99
2018-03-18T01:02:19.688Z,-3.07
2018-03-18T01:04:48.999Z,-3.04
2018-03-18T01:07:18.493Z,-3.10
2018-03-18T01:09:49.422Z,-3.02
2018-03-18T01:12:20.718Z,-3.01
2018-03-18T01:14:49.230Z,-3.06
2018-03-18T01:17:18.449Z,-3.02
2018-03-18T01:19:46.866Z,-3.14
2018-03-18T01:22:16.338Z,-3.16
2018-03-18T01:24:45.629Z,-3.16
2018-03-18T01:27:16.562Z,-3.28
2018-03-18T01:29:48.662Z,-3.35
2018-03-18T01:32:19.984Z,-3.41
2018-03-18T01:34:49.258Z,-3.48
2018-03-18T01:37:17.874Z,-3.50
2018-03-18T01:39:47.543Z,-3.50
2018-03-18T01:42:15.931Z,-3.58
2018-03-18T01:44:45.996Z,-3.42
2018-03-18T01:47:14.660Z,-3.41
2018-03-18T01:49:43.001Z,-3.44
2018-03-18T01:52:13.146Z,-3.54
2018-03-18T01:54:41.496Z,-3.64
2018-03-18T01:57:10.848Z,-3.64
2018-03-18T01:59:39.776Z,-3.51
2018-03-18T02:02:08.133Z,-3.51
2018-03-18T02:04:37.994Z,-3.64
2018-03-18T02:07:06.404Z,-3.60
2018-03-18T02:09:34.841Z,-3.51
2018-03-18T02:12:04.285Z,-3.69
2018-03-18T02:14:32.679Z,-3.67
2018-03-18T02:17:03.519Z,-3.76
2018-03-18T02:19:33.472Z,-3.61
2018-03-18T02:22:02.186Z,-3.66
2018-03-18T02:24:32.198Z,-3.56
2018-03-18T02:27:00.606Z,-3.54
2018-03-18T02:29:29.500Z,-3.49
2018-03-18T02:31:59.590Z,-3.56
2018-03-18T02:34:30.638Z,-3.48
2018-03-18T02:37:00.674Z,-3.53
2018-03-18T02:39:31.427Z,-3.52
2018-03-18T02:42:00.557Z,-3.61
2018-03-18T02:44:31.051Z,-3.55
2018-03-18T02:47:00.551Z,-3.54
2018-03-18T02:49:29.737Z,-3.52
2018-03-18T02:51:59.099Z,-3.51
2018-03-18T02:54:29.446Z,-3.56
2018-03-18T02:56:59.238Z,-3.63
2018-03-18T02:59:28.061Z,-3.58
2018-03-18T03:01:57.737Z,-3.59
2018-03-18T03:04:31.040Z,-3.43
2018-03-18T03:07:00.059Z,-3.57
2018-03-18T03:09:29.885Z,-3.44
2018-03-18T03:11:59.199Z,-3.51
2018-03-18T03:14:28.450Z,-3.61
2018-03-18T03:16:57.657Z,-3.58
2018-03-18T03:19:26.969Z,-3.52
2018-03-18T03:21:55.646Z,-3.61
2018-03-18T03:24:24.311Z,-3.64
2018-03-18T03:26:53.663Z,-3.62
2018-03-18T03:29:23.315Z,-3.60
2018-03-18T03:31:53.007Z,-3.64
2018-03-18T03:34:21.334Z,-3.48
2018-03-18T03:36:49.712Z,-3.42
2018-03-18T03:39:19.111Z,-3.54
2018-03-18T03:41:47.587Z,-3.66
2018-03-18T03:44:16.934Z,-3.67
2018-03-18T03:46:47.378Z,-3.79
2018-03-18T03:49:15.883Z,-3.67
2018-03-18T03:51:45.000Z,-3.72
2018-03-18T03:54:13.915Z,-3.72
2018-03-18T03:56:45.481Z,-3.69
2018-03-18T03:59:14.397Z,-3.70
2018-03-18T04:01:44.156Z,-3.71
2018-03-18T04:04:13.703Z,-3.76
2018-03-18T04:06:42.663Z,-3.89
2018-03-18T04:09:11.693Z,-3.84
2018-03-18T04:11:41.037Z,-3.87
2018-03-18T04:14:10.330Z,-3.85
2018-03-18T04:16:39.500Z,-3.90
2018-03-18T04:19:09.960Z,-3.94
2018-03-18T04:21:40.641Z,-3.90
2018-03-18T04:24:10.172Z,-3.91
2018-03-18T04:26:38.956Z,-4.00
2018-03-18T04:29:11.072Z,-4.05
2018-03-18T04:31:41.141Z,-4.06
2018-03-18T04:34:10.419Z,-4.04
2018-03-18T04:36:39.581Z,-4.12
2018-03-18T04:39:09.718Z,-4.09
2018-03-18T04:41:39.735Z,-4.12
2018-03-18T04:44:09.216Z,-4.10
2018-03-18T04:46:38.540Z,-4.16
2018-03-18T04:49:08.414Z,-4.16
2018-03-18T04:51:37.338Z,-4.30
2018-03-18T04:54:07.051Z,-4.15
2018-03-18T04:56:35.458Z,-4.19
2018-03-18T04:59:05.508Z,-4.18
2018-03-18T05:01:34.772Z,-4.19
2018-03-18T05:04:03.903Z,-4.23
2018-03-18T05:06:36.942Z,-4.14
2018-03-18T05:09:07.963Z,-4.21
2018-03-18T05:11:37.974Z,-4.23
2018-03-18T05:14:07.200Z,-4.04
2018-03-18T05:16:37.895Z,-4.11
2018-03-18T05:19:06.485Z,-4.24
2018-03-18T05:21:37.171Z,-4.24
2018-03-18T05:24:06.467Z,-4.21
2018-03-18T05:26:36.305Z,-4.29
2018-03-18T05:29:05.836Z,-4.34
2018-03-18T05:31:34.220Z,-4.36
2018-03-18T05:34:03.619Z,-4.30
2018-03-18T05:36:34.492Z,-4.39
2018-03-18T05:39:02.859Z,-4.41
2018-03-18T05:41:33.250Z,-4.43
2018-03-18T05:44:02.576Z,-4.47
2018-03-18T05:46:32.574Z,-4.42
2018-03-18T05:49:00.986Z,-4.35
2018-03-18T05:51:29.471Z,-4.41
2018-03-18T05:53:57.851Z,-4.33
2018-03-18T05:56:26.842Z,-4.36
2018-03-18T05:58:55.971Z,-4.32
2018-03-18T06:01:25.614Z,-4.38
2018-03-18T06:03:55.287Z,-4.37
2018-03-18T06:06:24.525Z,-4.33
2018-03-18T06:08:52.957Z,-4.29
2018-03-18T06:11:23.181Z,-4.25
2018-03-18T06:13:52.886Z,-4.23
2018-03-18T06:16:22.667Z,-4.21
2018-03-18T06:18:51.670Z,-4.22
2018-03-18T06:21:20.043Z,-4.32
2018-03-18T06:23:49.551Z,-4.31
2018-03-18T06:26:19.275Z,-4.28
2018-03-18T06:28:47.772Z,-4.21
2018-03-18T06:31:17.581Z,-4.18
2018-03-18T06:33:48.194Z,-4.30
2018-03-18T06:36:18.835Z,-4.36
2018-03-18T06:38:47.215Z,-4.35
2018-03-18T06:41:17.023Z,-4.40
2018-03-18T06:43:45.817Z,-4.20
2018-03-18T06:46:16.748Z,-4.24
2018-03-18T06:48:47.201Z,-4.25
2018-03-18T06:51:17.412Z,-4.16
2018-03-18T06:53:46.685Z,-4.10
2018-03-18T06:56:18.346Z,-4.15
2018-03-18T06:58:46.719Z,-4.33
2018-03-18T07:01:15.863Z,-4.36
2018-03-18T07:03:44.510Z,-4.24
2018-03-18T07:06:14.389Z,-4.28
2018-03-18T07:08:45.433Z,-4.32
2018-03-18T07:11:14.731Z,-4.16
2018-03-18T07:13:43.842Z,-4.20
2018-03-18T07:16:13.000Z,-4.30
2018-03-18T07:18:41.735Z,-4.13
2018-03-18T07:21:12.831Z,-4.21
2018-03-18T07:23:42.624Z,-4.20
2018-03-18T07:26:14.329Z,-4.15
2018-03-18T07:28:43.748Z,-4.11
2018-03-18T07:31:17.241Z,-4.15
2018-03-18T07:33:45.658Z,-4.16
2018-03-18T07:36:14.959Z,-4.11
2018-03-18T07:38:46.653Z,-4.10
2018-03-18T07:41:15.874Z,-3.99
2018-03-18T07:43:45.219Z,-4.00
2018-03-18T07:46:14.308Z,-4.10
2018-03-18T07:48:44.081Z,-4.16
2018-03-18T07:51:14.292Z,-4.05
2018-03-18T07:53:45.267Z,-4.09
2018-03-18T07:56:16.975Z,-4.11
2018-03-18T07:58:47.099Z,-4.21
2018-03-18T08:01:16.499Z,-4.22
2018-03-18T08:03:46.757Z,-4.28
2018-03-18T08:06:17.295Z,-4.18
2018-03-18T08:08:46.218Z,-4.13
2018-03-18T08:11:14.836Z,-4.09
2018-03-18T08:13:44.003Z,-4.18
2018-03-18T08:16:13.254Z,-3.99
2018-03-18T08:18:42.782Z,-3.94
2018-03-18T08:21:11.348Z,-3.61
2018-03-18T08:23:39.680Z,-3.62
2018-03-18T08:26:09.736Z,-3.70
2018-03-18T08:28:39.895Z,-3.62
2018-03-18T08:31:09.758Z,-3.59
2018-03-18T08:33:38.148Z,-3.60
2018-03-18T08:36:06.840Z,-3.47
2018-03-18T08:38:36.719Z,-3.35
2018-03-18T08:41:06.407Z,-3.49
2018-03-18T08:43:35.668Z,-3.29
2018-03-18T08:46:04.705Z,-3.51
2018-03-18T08:48:33.946Z,-3.56
2018-03-18T08:51:03.112Z,-3.51
2018-03-18T08:53:31.927Z,-3.36
2018-03-18T08:56:01.102Z,-3.45
2018-03-18T08:58:33.480Z,-3.51
2018-03-18T09:01:03.426Z,-3.59
2018-03-18T09:03:32.969Z,-3.33
2018-03-18T09:06:02.952Z,-3.15
2018-03-18T09:08:32.392Z,-2.88
2018-03-18T09:11:02.372Z,-2.97
2018-03-18T09:13:31.565Z,-2.63
2018-03-18T09:16:00.821Z,-2.57
2018-03-18T09:18:30.158Z,-2.19
2018-03-18T09:21:00.735Z,-2.45
2018-03-18T09:23:30.079Z,-2.54
2018-03-18T09:25:58.492Z,-2.19
2018-03-18T09:28:27.325Z,-2.03
2018-03-18T09:30:55.757Z,-2.27
2018-03-18T09:33:25.150Z,-2.32
2018-03-18T09:35:55.234Z,-2.09
2018-03-18T09:38:24.580Z,-1.67
2018-03-18T09:40:54.164Z,-1.36
2018-03-18T09:43:24.373Z,-0.97
2018-03-18T09:45:54.054Z,-0.89
2018-03-18T09:48:24.848Z,-0.73
2018-03-18T09:50:55.597Z,-0.85
2018-03-18T09:53:24.458Z,-0.96
2018-03-18T09:55:53.982Z,-1.19
2018-03-18T09:58:23.535Z,-0.95
2018-03-18T10:00:54.205Z,-0.70
2018-03-18T10:03:24.199Z,-0.82
2018-03-18T10:05:55.857Z,-0.65
2018-03-18T10:08:25.589Z,-0.70
2018-03-18T10:10:58.741Z,-0.74
2018-03-18T10:13:27.745Z,-0.78
2018-03-18T10:15:57.656Z,-0.43
2018-03-18T10:18:27.148Z,-0.79
2018-03-18T10:20:56.866Z,-0.45
2018-03-18T10:23:27.898Z,-0.10
2018-03-18T10:25:59.060Z,-0.74
2018-03-18T10:28:31.199Z,-0.69
2018-03-18T10:31:08.909Z,-0.61
2018-03-18T10:33:37.999Z,-0.61
2018-03-18T10:36:06.704Z,-0.90
2018-03-18T10:38:35.034Z,-0.88
2018-03-18T10:41:06.531Z,-1.05
2018-03-18T10:43:37.928Z,-0.57
2018-03-18T10:46:06.746Z,-0.93
2018-03-18T10:48:36.488Z,-0.60
2018-03-18T10:51:06.296Z,-0.86
2018-03-18T10:53:36.413Z,-0.76
2018-03-18T10:56:04.844Z,-0.81
2018-03-18T10:58:39.749Z,-0.66
2018-03-18T11:01:19.314Z,-0.89
2018-03-18T11:03:55.137Z,-0.97
2018-03-18T11:06:27.695Z,-0.92
2018-03-18T11:08:56.838Z,-0.92
2018-03-18T11:11:27.332Z,-0.97
2018-03-18T11:13:56.712Z,-1.12
2018-03-18T11:16:25.372Z,-0.96
2018-03-18T11:18:53.752Z,-0.75
2018-03-18T11:21:24.512Z,-0.65
2018-03-18T11:23:54.636Z,-1.09
2018-03-18T11:26:24.773Z,-1.16
2018-03-18T11:28:54.059Z,-0.96
2018-03-18T11:31:23.087Z,-0.61
2018-03-18T11:33:51.451Z,-0.79
2018-03-18T11:36:21.717Z,-0.86
2018-03-18T11:38:50.380Z,-0.74
2018-03-18T11:41:19.193Z,-0.93
2018-03-18T11:43:48.682Z,-0.58
2018-03-18T11:46:21.728Z,-0.57
2018-03-18T11:48:51.319Z,-0.53
2018-03-18T11:51:22.578Z,-0.13
2018-03-18T11:53:51.681Z,-0.43
2018-03-18T11:56:20.564Z,-0.53
2018-03-18T11:58:49.726Z,0.11
2018-03-18T12:01:18.316Z,-0.01
2018-03-18T12:03:47.116Z,-0.28
2018-03-18T12:06:16.714Z,-0.04
2018-03-18T12:08:56.928Z,-0.19
2018-03-18T12:11:25.908Z,-0.31
2018-03-18T12:13:54.502Z,-0.33
2018-03-18T12:16:22.903Z,0.00
2018-03-18T12:18:52.205Z,0.16
2018-03-18T12:21:20.631Z,0.25
2018-03-18T12:23:49.112Z,0.59
2018-03-18T12:26:18.082Z,0.06
2018-03-18T12:28:47.341Z,0.19
2018-03-18T12:31:16.926Z,0.24
2018-03-18T12:33:45.258Z,0.95
2018-03-18T12:36:16.279Z,0.24
2018-03-18T12:38:46.327Z,0.65
2018-03-18T12:41:14.707Z,0.62
2018-03-18T12:43:43.583Z,0.90
2018-03-18T12:46:12.153Z,0.48
2018-03-18T12:48:40.484Z,0.65
2018-03-18T12:51:09.765Z,0.84
2018-03-18T12:53:38.714Z,1.10
2018-03-18T12:56:09.855Z,0.87
2018-03-18T12:58:38.801Z,1.20
2018-03-18T13:01:07.635Z,1.11
2018-03-18T13:03:37.708Z,1.17
2018-03-18T13:06:06.572Z,1.34
2018-03-18T13:08:35.866Z,1.25
2018-03-18T13:11:04.252Z,1.14
2018-03-18T13:13:34.348Z,1.09
2018-03-18T13:16:02.712Z,0.76
2018-03-18T13:18:31.407Z,0.47
2018-03-18T13:20:59.887Z,0.45
2018-03-18T13:23:29.138Z,0.47
2018-03-18T13:25:57.490Z,0.66
2018-03-18T13:28:26.673Z,0.76
2018-03-18T13:30:55.348Z,0.94
2018-03-18T13:33:25.178Z,0.99
2018-03-18T13:35:54.480Z,0.54
2018-03-18T13:38:23.135Z,0.64
2018-03-18T13:40:51.500Z,0.69
2018-03-18T13:43:20.009Z,0.94
2018-03-18T13:45:49.157Z,0.57
2018-03-18T13:48:18.298Z,0.39
2018-03-18T13:50:47.379Z,1.10
2018-03-18T13:53:16.320Z,0.72
2018-03-18T13:55:45.477Z,0.74
2018-03-18T13:58:14.421Z,1.18
2018-03-18T14:00:42.845Z,0.74
2018-03-18T14:03:11.257Z,0.71
2018-03-18T14:05:39.640Z,0.75
2018-03-18T14:08:08.058Z,0.76
2018-03-18T14:10:40.233Z,1.10
2018-03-18T14:13:08.872Z,0.81
2018-03-18T14:15:38.988Z,1.31
2018-03-18T14:18:07.513Z,0.56
2018-03-18T14:20:35.841Z,0.37
2018-03-18T14:23:04.190Z,0.45
2018-03-18T14:25:33.454Z,0.86
2018-03-18T14:28:02.481Z,1.02
2018-03-18T14:30:34.807Z,1.02
2018-03-18T14:33:03.627Z,0.88
2018-03-18T14:35:32.716Z,0.82
2018-03-18T14:38:01.051Z,1.06
2018-03-18T14:40:30.337Z,0.44
2018-03-18T14:42:59.699Z,0.07
2018-03-18T14:45:32.106Z,-0.06
2018-03-18T14:48:01.095Z,-0.11
2018-03-18T14:50:32.351Z,-0.12
2018-03-18T14:53:00.678Z,-0.10
2018-03-18T14:55:29.104Z,0.01
2018-03-18T14:57:57.542Z,-0.10
2018-03-18T15:00:27.101Z,-0.27
2018-03-18T15:02:55.437Z,-0.22
2018-03-18T15:05:23.802Z,-0.20
2018-03-18T15:07:52.147Z,-0.10
2018-03-18T15:10:21.966Z,-0.11
2018-03-18T15:12:50.290Z,-0.15
2018-03-18T15:15:18.663Z,-0.13
2018-03-18T15:17:47.634Z,-0.50
2018-03-18T15:20:16.083Z,-0.33
2018-03-18T15:22:44.435Z,-0.36
2018-03-18T15:25:13.327Z,-0.34
2018-03-18T15:27:43.966Z,-0.44
2018-03-18T15:30:12.290Z,-0.38
2018-03-18T15:32:41.542Z,-0.40
2018-03-18T15:35:09.876Z,-0.42
2018-03-18T15:37:38.280Z,-0.25
2018-03-18T15:40:08.520Z,-0.42
2018-03-18T15:42:43.976Z,-0.53
2018-03-18T15:45:12.330Z,-0.49
2018-03-18T15:47:42.192Z,-0.69
2018-03-18T15:50:12.191Z,-0.50
2018-03-18T15:52:40.549Z,-0.49
2018-03-18T15:55:11.589Z,-0.47
2018-03-18T15:57:40.247Z,-0.38
2018-03-18T16:00:09.220Z,-0.62
2018-03-18T16:02:37.846Z,-0.61
2018-03-18T16:05:06.663Z,-0.49
2018-03-18T16:07:35.070Z,-0.67
2018-03-18T16:10:05.253Z,-0.73
2018-03-18T16:12:34.999Z,-0.64
2018-03-18T16:15:03.386Z,-0.80
2018-03-18T16:17:32.602Z,-0.74
2018-03-18T16:20:01.071Z,-0.73
2018-03-18T16:22:29.772Z,-1.07
2018-03-18T16:24:59.493Z,-0.84
2018-03-18T16:27:29.103Z,-0.84
2018-03-18T16:30:11.509Z,-0.91
2018-03-18T16:32:41.702Z,-1.05
2018-03-18T16:35:11.216Z,-1.00
2018-03-18T16:37:39.614Z,-1.05
2018-03-18T16:40:09.039Z,-0.99
2018-03-18T16:42:40.229Z,-0.98
2018-03-18T16:45:12.058Z,-1.07
2018-03-18T16:47:40.476Z,-1.18
2018-03-18T16:50:09.681Z,-0.97
2018-03-18T16:52:39.055Z,-1.02
2018-03-18T16:55:11.291Z,-1.19
2018-03-18T16:57:40.385Z,-1.00
2018-03-18T17:00:08.719Z,-1.15
2018-03-18T17:02:37.530Z,-1.03
2018-03-18T17:05:07.066Z,-1.06
2018-03-18T17:07:37.004Z,-1.26
2018-03-18T17:10:05.390Z,-1.29
2018-03-18T17:12:34.659Z,-1.45
2018-03-18T17:15:05.156Z,-1.38
2018-03-18T17:17:33.487Z,-1.32
2018-03-18T17:20:02.068Z,-1.33
2018-03-18T17:22:31.500Z,-1.36
2018-03-18T17:25:00.771Z,-1.25
2018-03-18T17:27:31.639Z,-1.32
2018-03-18T17:30:01.523Z,-1.39
2018-03-18T17:32:31.143Z,-1.29
2018-03-18T17:35:00.312Z,-1.45
2018-03-18T17:37:29.070Z,-1.58
2018-03-18T17:39:59.003Z,-1.54
2018-03-18T17:42:28.675Z,-1.55
2018-03-18T17:45:12.171Z,-1.44
2018-03-18T17:47:54.371Z,-1.32
2018-03-18T17:50:38.144Z,-1.27
2018-03-18T17:53:18.138Z,-1.42
2018-03-18T17:55:48.857Z,-1.39
2018-03-18T17:58:17.397Z,-1.45
2018-03-18T18:00:47.224Z,-1.56
2018-03-18T18:03:15.888Z,-1.51
2018-03-18T18:05:45.551Z,-1.46
2018-03-18T18:08:15.615Z,-1.61
2018-03-18T18:10:46.333Z,-1.52
2018-03-18T18:13:16.326Z,-1.39
2018-03-18T18:15:48.560Z,-1.27
2018-03-18T18:18:17.808Z,-1.46
2018-03-18T18:20:47.592Z,-1.38
2018-03-18T18:23:17.098Z,-1.60
2018-03-18T18:25:50.592Z,-1.47
2018-03-18T18:28:20.986Z,-1.46
2018-03-18T18:30:56.764Z,-1.61
2018-03-18T18:33:27.150Z,-1.41
2018-03-18T18:35:56.405Z,-1.58
2018-03-18T18:38:25.016Z,-1.68
2018-03-18T18:40:54.498Z,-1.76
2018-03-18T18:43:22.880Z,-1.54
2018-03-18T18:45:52.481Z,-1.41
2018-03-18T18:48:21.876Z,-1.51
2018-03-18T18:50:52.046Z,-1.62
2018-03-18T18:53:22.670Z,-1.68
2018-03-18T18:55:51.792Z,-1.64
2018-03-18T18:58:20.159Z,-1.68
2018-03-18T19:00:49.388Z,-1.63
2018-03-18T19:03:19.684Z,-1.65
2018-03-18T19:05:50.073Z,-1.59
2018-03-18T19:08:19.544Z,-1.67
2018-03-18T19:10:48.833Z,-1.67
2018-03-18T19:13:17.622Z,-1.58
2018-03-18T19:15:46.886Z,-1.65
2018-03-18T19:18:15.971Z,-1.71
2018-03-18T19:20:44.308Z,-1.78
2018-03-18T19:23:12.972Z,-1.79
2018-03-18T19:25:42.162Z,-1.68
2018-03-18T19:28:12.453Z,-1.81
2018-03-18T19:30:40.786Z,-1.76
2018-03-18T19:33:10.013Z,-1.81
2018-03-18T19:35:39.355Z,-1.68
2018-03-18T19:38:07.761Z,-1.89
2018-03-18T19:40:37.135Z,-1.84
2018-03-18T19:43:05.918Z,-1.70
2018-03-18T19:45:34.307Z,-1.87
2018-03-18T19:48:03.745Z,-1.77
2018-03-18T19:50:32.152Z,-1.78
2018-03-18T19:53:00.531Z,-1.95
2018-03-18T19:55:29.189Z,-2.06
2018-03-18T19:57:59.199Z,-1.98
2018-03-18T20:00:28.851Z,-1.96
2018-03-18T20:02:59.634Z,-2.05
2018-03-18T20:05:29.211Z,-2.00
2018-03-18T20:07:59.662Z,-1.97
2018-03-18T20:10:29.644Z,-1.94
2018-03-18T20:12:57.997Z,-1.98
2018-03-18T20:15:26.681Z,-2.08
2018-03-18T20:17:55.795Z,-2.00
2018-03-18T20:20:24.197Z,-2.05
2018-03-18T20:22:52.531Z,-1.85
2018-03-18T20:25:20.900Z,-2.04
2018-03-18T20:27:51.327Z,-2.01
2018-03-18T20:30:23.116Z,-1.81
2018-03-18T20:32:51.442Z,-1.91
2018-03-18T20:35:20.797Z,-2.04
2018-03-18T20:37:51.355Z,-2.04
2018-03-18T20:40:19.792Z,-2.01
2018-03-18T20:42:50.374Z,-2.00
2018-03-18T20:45:19.569Z,-1.95
2018-03-18T20:47:48.784Z,-2.00
2018-03-18T20:50:17.111Z,-2.03
2018-03-18T20:52:46.287Z,-2.14
2018-03-18T20:55:14.618Z,-2.11
2018-03-18T20:57:43.035Z,-2.18
2018-03-18T21:00:13.771Z,-2.20
2018-03-18T21:02:42.152Z,-2.10
2018-03-18T21:05:10.506Z,-2.17
2018-03-18T21:07:41.039Z,-2.23
2018-03-18T21:10:10.176Z,-2.23
2018-03-18T21:12:39.254Z,-2.20
2018-03-18T21:15:07.587Z,-2.20
2018-03-18T21:17:37.824Z,-2.19
2018-03-18T21:20:06.172Z,-2.17
2018-03-18T21:22:36.251Z,-2.13
2018-03-18T21:25:06.887Z,-2.20
2018-03-18T21:27:36.599Z,-2.14
2018-03-18T21:30:06.633Z,-2.26
2018-03-18T21:32:35.272Z,-2.17
2018-03-18T21:35:03.612Z,-2.14
2018-03-18T21:37:31.979Z,-2.27
2018-03-18T21:40:00.381Z,-2.14
2018-03-18T21:42:28.732Z,-2.33
2018-03-18T21:44:58.137Z,-2.37
2018-03-18T21:47:26.611Z,-2.32
2018-03-18T21:49:54.957Z,-2.39
2018-03-18T21:52:23.320Z,-2.51
2018-03-18T21:54:51.653Z,-2.50
2018-03-18T21:57:20.450Z,-2.38
2018-03-18T21:59:50.482Z,-2.49
2018-03-18T22:02:19.734Z,-2.56
2018-03-18T22:04:48.550Z,-2.39
2018-03-18T22:07:17.829Z,-2.43
2018-03-18T22:09:48.831Z,-2.55
2018-03-18T22:12:17.169Z,-2.51
2018-03-18T22:14:45.574Z,-2.43
2018-03-18T22:17:17.364Z,-2.47
2018-03-18T22:19:46.336Z,-2.44
2018-03-18T22:22:14.933Z,-2.51
2018-03-18T22:24:44.985Z,-2.44
2018-03-18T22:27:13.438Z,-2.35
2018-03-18T22:29:41.808Z,-2.50
2018-03-18T22:32:10.163Z,-2.47
2018-03-18T22:34:39.725Z,-2.48
2018-03-18T22:37:08.118Z,-2.52
2018-03-18T22:39:37.255Z,-2.49
2018-03-18T22:42:05.802Z,-2.39
2018-03-18T22:44:34.996Z,-2.53
2018-03-18T22:47:03.362Z,-2.63
2018-03-18T22:49:32.480Z,-2.53
2018-03-18T22:52:01.848Z,-2.59
2018-03-18T22:54:30.253Z,-2.61
2018-03-18T22:56:59.336Z,-2.62
2018-03-18T22:59:31.186Z,-2.59
2018-03-18T23:02:00.339Z,-2.62
2018-03-18T23:04:28.707Z,-2.64
2018-03-18T23:06:59.975Z,-2.73
2018-03-18T23:09:28.535Z,-2.72
2018-03-18T23:11:56.946Z,-2.68
2018-03-18T23:14:27.750Z,-2.84
2018-03-18T23:16:56.404Z,-2.73
2018-03-18T23:19:25.049Z,-2.65
2018-03-18T23:21:53.424Z,-2.70
2018-03-18T23:24:21.759Z,-2.59
2018-03-18T23:26:51.077Z,-2.69
2018-03-18T23:29:19.716Z,-2.64
2018-03-18T23:31:50.620Z,-2.66
2018-03-18T23:34:19.479Z,-2.88
2018-03-18T23:36:48.311Z,-2.86
2018-03-18T23:39:17.395Z,-2.66
2018-03-18T23:41:46.745Z,-2.90
2018-03-18T23:44:15.083Z,-2.81
2018-03-18T23:46:43.877Z,-2.88
2018-03-18T23:49:14.976Z,-2.71
2018-03-18T23:51:46.665Z,-2.61
2018-03-18T23:54:17.481Z,-2.88
2018-03-18T23:56:47.558Z,-2.74
2018-03-18T23:59:17.231Z,-2.82
